Terminal Aerodrome Forecast
Issued by NWS Newport/Morehead City, NC

Home | Current Version | Previous Version | Text Only | Print | Product List | Glossary On
Versions: 1 2 3 4 5 6 7 8 9 10 11 12 13 14
000
FTUS42 KMHX 040559
TAFEWN
TAF
KEWN 040559Z 0406/0506 00000KT P6SM SCT090 OVC200
     FM042100 04006KT P6SM VCSH BKN050
     FM050000 06005KT 3SM -RA BR OVC010
     FM050300 09005KT 2SM -RA BR OVC007=

USA.gov is the U.S. government's official web portal to all federal, state and local government web resources and services.